sensor_id;sensor_type;location;lat;lon;timestamp;temperature;humidity
10419;DHT22;5256;48.728;9.140;2023-04-06T00:01:03;-0.80;99.90
10419;DHT22;5256;48.728;9.140;2023-04-06T00:03:28;-0.90;99.90
10419;DHT22;5256;48.728;9.140;2023-04-06T00:05:54;-0.90;99.90
10419;DHT22;5256;48.728;9.140;2023-04-06T00:08:20;-1.00;99.90
10419;DHT22;5256;48.728;9.140;2023-04-06T00:10:47;-0.90;99.90
10419;DHT22;5256;48.728;9.140;2023-04-06T00:13:13;-0.90;99.90
10419;DHT22;5256;48.728;9.140;2023-04-06T00:15:38;-0.90;99.90
10419;DHT22;5256;48.728;9.140;2023-04-06T00:18:04;-0.90;99.90
10419;DHT22;5256;48.728;9.140;2023-04-06T00:20:29;-0.90;99.90
10419;DHT22;5256;48.728;9.140;2023-04-06T00:22:55;-0.90;99.90
10419;DHT22;5256;48.728;9.140;2023-04-06T00:25:21;-0.90;99.90
10419;DHT22;5256;48.728;9.140;2023-04-06T00:27:46;-0.80;99.90
10419;DHT22;5256;48.728;9.140;2023-04-06T00:30:12;-0.90;99.90
10419;DHT22;5256;48.728;9.140;2023-04-06T00:32:38;-1.00;99.90
10419;DHT22;5256;48.728;9.140;2023-04-06T00:35:04;-1.10;99.90
10419;DHT22;5256;48.728;9.140;2023-04-06T00:37:30;-1.20;99.90
10419;DHT22;5256;48.728;9.140;2023-04-06T00:39:56;-1.20;99.90
10419;DHT22;5256;48.728;9.140;2023-04-06T00:42:22;-1.30;99.90
10419;DHT22;5256;48.728;9.140;2023-04-06T00:44:56;-1.40;99.90
10419;DHT22;5256;48.728;9.140;2023-04-06T00:47:23;-1.40;99.90
10419;DHT22;5256;48.728;9.140;2023-04-06T00:49:50;-1.40;99.90
10419;DHT22;5256;48.728;9.140;2023-04-06T00:52:16;-1.40;99.90
10419;DHT22;5256;48.728;9.140;2023-04-06T00:54:42;-1.40;99.90
10419;DHT22;5256;48.728;9.140;2023-04-06T00:57:08;-1.50;99.90
10419;DHT22;5256;48.728;9.140;2023-04-06T00:59:33;-1.50;99.90
10419;DHT22;5256;48.728;9.140;2023-04-06T01:01:59;-1.50;99.90
10419;DHT22;5256;48.728;9.140;2023-04-06T01:04:25;-1.50;99.90
10419;DHT22;5256;48.728;9.140;2023-04-06T01:06:51;-1.60;99.90
10419;DHT22;5256;48.728;9.140;2023-04-06T01:09:17;-1.60;99.90
10419;DHT22;5256;48.728;9.140;2023-04-06T01:11:43;-1.50;99.90
10419;DHT22;5256;48.728;9.140;2023-04-06T01:14:09;-1.50;99.90
10419;DHT22;5256;48.728;9.140;2023-04-06T01:16:35;-1.60;99.90
10419;DHT22;5256;48.728;9.140;2023-04-06T01:19:06;-1.60;99.90
10419;DHT22;5256;48.728;9.140;2023-04-06T01:21:32;-1.60;99.90
10419;DHT22;5256;48.728;9.140;2023-04-06T01:23:58;-1.70;99.90
10419;DHT22;5256;48.728;9.140;2023-04-06T01:26:24;-1.60;99.90
10419;DHT22;5256;48.728;9.140;2023-04-06T01:28:49;-1.60;99.90
10419;DHT22;5256;48.728;9.140;2023-04-06T01:31:15;-1.60;99.90
10419;DHT22;5256;48.728;9.140;2023-04-06T01:33:41;-1.60;99.90
10419;DHT22;5256;48.728;9.140;2023-04-06T01:36:06;-1.60;99.90
10419;DHT22;5256;48.728;9.140;2023-04-06T01:38:32;-1.60;99.90
10419;DHT22;5256;48.728;9.140;2023-04-06T01:40:58;-1.60;99.90
10419;DHT22;5256;48.728;9.140;2023-04-06T01:43:23;-1.60;99.90
10419;DHT22;5256;48.728;9.140;2023-04-06T01:45:49;-1.60;99.90
10419;DHT22;5256;48.728;9.140;2023-04-06T01:48:15;-1.60;99.90
10419;DHT22;5256;48.728;9.140;2023-04-06T01:50:40;-1.60;99.90
10419;DHT22;5256;48.728;9.140;2023-04-06T01:53:06;-1.70;99.90
10419;DHT22;5256;48.728;9.140;2023-04-06T01:55:32;-1.70;99.90
10419;DHT22;5256;48.728;9.140;2023-04-06T01:57:57;-1.80;99.90
10419;DHT22;5256;48.728;9.140;2023-04-06T02:00:23;-1.80;99.90
10419;DHT22;5256;48.728;9.140;2023-04-06T02:02:48;-1.90;99.90
10419;DHT22;5256;48.728;9.140;2023-04-06T02:05:14;-2.00;99.90
10419;DHT22;5256;48.728;9.140;2023-04-06T02:07:39;-2.00;99.90
10419;DHT22;5256;48.728;9.140;2023-04-06T02:10:11;-2.10;99.90
10419;DHT22;5256;48.728;9.140;2023-04-06T02:12:37;-2.10;99.90
10419;DHT22;5256;48.728;9.140;2023-04-06T02:15:03;-2.10;99.90
10419;DHT22;5256;48.728;9.140;2023-04-06T02:17:29;-2.20;99.90
10419;DHT22;5256;48.728;9.140;2023-04-06T02:19:54;-2.20;99.90
10419;DHT22;5256;48.728;9.140;2023-04-06T02:22:20;-2.10;99.90
10419;DHT22;5256;48.728;9.140;2023-04-06T02:24:45;-2.20;99.90
10419;DHT22;5256;48.728;9.140;2023-04-06T02:27:13;-2.20;99.90
10419;DHT22;5256;48.728;9.140;2023-04-06T02:29:38;-2.20;99.90
10419;DHT22;5256;48.728;9.140;2023-04-06T02:32:04;-2.20;99.90
10419;DHT22;5256;48.728;9.140;2023-04-06T02:34:30;-2.20;99.90
10419;DHT22;5256;48.728;9.140;2023-04-06T02:36:56;-2.20;99.90
10419;DHT22;5256;48.728;9.140;2023-04-06T02:39:21;-2.20;99.90
10419;DHT22;5256;48.728;9.140;2023-04-06T02:41:48;-2.10;99.90
10419;DHT22;5256;48.728;9.140;2023-04-06T02:44:13;-2.10;99.90
10419;DHT22;5256;48.728;9.140;2023-04-06T02:46:39;-2.20;99.90
10419;DHT22;5256;48.728;9.140;2023-04-06T02:49:05;-2.20;99.90
10419;DHT22;5256;48.728;9.140;2023-04-06T02:51:31;-2.30;99.90
10419;DHT22;5256;48.728;9.140;2023-04-06T02:53:56;-2.40;99.90
10419;DHT22;5256;48.728;9.140;2023-04-06T02:56:22;-2.30;99.90
10419;DHT22;5256;48.728;9.140;2023-04-06T02:58:47;-2.40;99.90
10419;DHT22;5256;48.728;9.140;2023-04-06T03:01:13;-2.30;99.90
10419;DHT22;5256;48.728;9.140;2023-04-06T03:03:39;-2.30;99.90
10419;DHT22;5256;48.728;9.140;2023-04-06T03:06:04;-2.30;99.90
10419;DHT22;5256;48.728;9.140;2023-04-06T03:08:30;-2.20;99.90
10419;DHT22;5256;48.728;9.140;2023-04-06T03:10:56;-2.30;99.90
10419;DHT22;5256;48.728;9.140;2023-04-06T03:13:21;-2.30;99.90
10419;DHT22;5256;48.728;9.140;2023-04-06T03:15:47;-2.30;99.90
10419;DHT22;5256;48.728;9.140;2023-04-06T03:18:12;-2.40;99.90
10419;DHT22;5256;48.728;9.140;2023-04-06T03:20:38;-2.40;99.90
10419;DHT22;5256;48.728;9.140;2023-04-06T03:23:04;-2.40;99.90
10419;DHT22;5256;48.728;9.140;2023-04-06T03:25:29;-2.30;99.90
10419;DHT22;5256;48.728;9.140;2023-04-06T03:27:57;-2.30;99.90
10419;DHT22;5256;48.728;9.140;2023-04-06T03:30:23;-2.30;99.90
10419;DHT22;5256;48.728;9.140;2023-04-06T03:32:49;-2.40;99.90
10419;DHT22;5256;48.728;9.140;2023-04-06T03:35:14;-2.40;99.90
10419;DHT22;5256;48.728;9.140;2023-04-06T03:37:40;-2.40;99.90
10419;DHT22;5256;48.728;9.140;2023-04-06T03:40:06;-2.50;99.90
10419;DHT22;5256;48.728;9.140;2023-04-06T03:42:32;-2.50;99.90
10419;DHT22;5256;48.728;9.140;2023-04-06T03:44:58;-2.50;99.90
10419;DHT22;5256;48.728;9.140;2023-04-06T03:47:24;-2.50;99.90
10419;DHT22;5256;48.728;9.140;2023-04-06T03:49:50;-2.40;99.90
10419;DHT22;5256;48.728;9.140;2023-04-06T03:52:15;-2.50;99.90
10419;DHT22;5256;48.728;9.140;2023-04-06T03:54:41;-2.40;99.90
10419;DHT22;5256;48.728;9.140;2023-04-06T03:57:06;-2.40;99.90
10419;DHT22;5256;48.728;9.140;2023-04-06T03:59:32;-2.30;99.90
10419;DHT22;5256;48.728;9.140;2023-04-06T04:01:58;-2.40;99.90
10419;DHT22;5256;48.728;9.140;2023-04-06T04:04:23;-2.30;99.90
10419;DHT22;5256;48.728;9.140;2023-04-06T04:06:49;-2.30;99.90
10419;DHT22;5256;48.728;9.140;2023-04-06T04:09:15;-2.30;99.90
10419;DHT22;5256;48.728;9.140;2023-04-06T04:11:40;-2.30;99.90
10419;DHT22;5256;48.728;9.140;2023-04-06T04:14:06;-2.40;99.90
10419;DHT22;5256;48.728;9.140;2023-04-06T04:16:32;-2.40;99.90
10419;DHT22;5256;48.728;9.140;2023-04-06T04:18:57;-2.50;99.90
10419;DHT22;5256;48.728;9.140;2023-04-06T04:21:29;-2.40;99.90
10419;DHT22;5256;48.728;9.140;2023-04-06T04:23:55;-2.40;99.90
10419;DHT22;5256;48.728;9.140;2023-04-06T04:26:21;-2.40;99.90
10419;DHT22;5256;48.728;9.140;2023-04-06T04:28:46;-2.40;99.90
10419;DHT22;5256;48.728;9.140;2023-04-06T04:31:12;-2.40;99.90
10419;DHT22;5256;48.728;9.140;2023-04-06T04:33:37;-2.30;99.90
10419;DHT22;5256;48.728;9.140;2023-04-06T04:36:03;-2.20;99.90
10419;DHT22;5256;48.728;9.140;2023-04-06T04:38:29;-2.20;99.90
10419;DHT22;5256;48.728;9.140;2023-04-06T04:40:55;-2.20;99.90
10419;DHT22;5256;48.728;9.140;2023-04-06T04:43:21;-2.20;99.90
10419;DHT22;5256;48.728;9.140;2023-04-06T04:45:46;-2.20;99.90
10419;DHT22;5256;48.728;9.140;2023-04-06T04:48:12;-2.20;99.90
10419;DHT22;5256;48.728;9.140;2023-04-06T04:50:37;-2.20;99.90
10419;DHT22;5256;48.728;9.140;2023-04-06T04:53:03;-2.20;99.90
10419;DHT22;5256;48.728;9.140;2023-04-06T04:55:31;-2.20;99.90
10419;DHT22;5256;48.728;9.140;2023-04-06T04:57:57;-2.20;99.90
10419;DHT22;5256;48.728;9.140;2023-04-06T05:00:22;-2.10;99.90
10419;DHT22;5256;48.728;9.140;2023-04-06T05:02:48;-2.10;99.90
10419;DHT22;5256;48.728;9.140;2023-04-06T05:05:14;-2.10;99.90
10419;DHT22;5256;48.728;9.140;2023-04-06T05:07:40;-2.10;99.90
10419;DHT22;5256;48.728;9.140;2023-04-06T05:10:06;-2.00;99.90
10419;DHT22;5256;48.728;9.140;2023-04-06T05:12:31;-1.90;99.90
10419;DHT22;5256;48.728;9.140;2023-04-06T05:14:57;-1.80;99.90
10419;DHT22;5256;48.728;9.140;2023-04-06T05:17:23;-1.80;99.90
10419;DHT22;5256;48.728;9.140;2023-04-06T05:19:48;-1.70;99.90
10419;DHT22;5256;48.728;9.140;2023-04-06T05:22:14;-1.60;99.90
10419;DHT22;5256;48.728;9.140;2023-04-06T05:24:43;-1.50;99.90
10419;DHT22;5256;48.728;9.140;2023-04-06T05:27:08;-1.50;99.90
10419;DHT22;5256;48.728;9.140;2023-04-06T05:29:34;-1.40;99.90
10419;DHT22;5256;48.728;9.140;2023-04-06T05:32:00;-1.30;99.90
10419;DHT22;5256;48.728;9.140;2023-04-06T05:34:26;-1.20;99.90
10419;DHT22;5256;48.728;9.140;2023-04-06T05:36:51;-1.10;99.90
10419;DHT22;5256;48.728;9.140;2023-04-06T05:39:17;-1.00;99.90
10419;DHT22;5256;48.728;9.140;2023-04-06T05:41:43;-1.00;99.90
10419;DHT22;5256;48.728;9.140;2023-04-06T05:44:08;-0.90;99.90
10419;DHT22;5256;48.728;9.140;2023-04-06T05:46:34;-0.70;99.90
10419;DHT22;5256;48.728;9.140;2023-04-06T05:48:59;-0.60;99.90
10419;DHT22;5256;48.728;9.140;2023-04-06T05:51:25;-0.50;99.90
10419;DHT22;5256;48.728;9.140;2023-04-06T05:53:52;-0.40;99.90
10419;DHT22;5256;48.728;9.140;2023-04-06T05:56:17;-0.20;99.90
10419;DHT22;5256;48.728;9.140;2023-04-06T05:58:43;0.00;99.90
10419;DHT22;5256;48.728;9.140;2023-04-06T06:01:08;0.10;99.90
10419;DHT22;5256;48.728;9.140;2023-04-06T06:03:35;0.20;99.90
10419;DHT22;5256;48.728;9.140;2023-04-06T06:06:04;0.40;99.90
10419;DHT22;5256;48.728;9.140;2023-04-06T06:08:30;0.50;99.90
10419;DHT22;5256;48.728;9.140;2023-04-06T06:10:56;0.70;99.90
10419;DHT22;5256;48.728;9.140;2023-04-06T06:13:23;0.90;99.90
10419;DHT22;5256;48.728;9.140;2023-04-06T06:15:49;1.00;99.90
10419;DHT22;5256;48.728;9.140;2023-04-06T06:18:15;1.10;99.90
10419;DHT22;5256;48.728;9.140;2023-04-06T06:20:40;1.30;99.90
10419;DHT22;5256;48.728;9.140;2023-04-06T06:23:06;1.50;99.90
10419;DHT22;5256;48.728;9.140;2023-04-06T06:25:32;1.70;99.90
10419;DHT22;5256;48.728;9.140;2023-04-06T06:27:58;1.90;99.90
10419;DHT22;5256;48.728;9.140;2023-04-06T06:30:24;2.10;99.90
10419;DHT22;5256;48.728;9.140;2023-04-06T06:32:51;2.30;99.90
10419;DHT22;5256;48.728;9.140;2023-04-06T06:35:17;2.50;99.90
10419;DHT22;5256;48.728;9.140;2023-04-06T06:37:42;2.70;99.90
10419;DHT22;5256;48.728;9.140;2023-04-06T06:40:09;2.90;99.90
10419;DHT22;5256;48.728;9.140;2023-04-06T06:42:35;3.20;99.90
10419;DHT22;5256;48.728;9.140;2023-04-06T06:45:01;3.30;99.90
10419;DHT22;5256;48.728;9.140;2023-04-06T06:47:27;3.40;99.90
10419;DHT22;5256;48.728;9.140;2023-04-06T06:49:53;3.50;99.90
10419;DHT22;5256;48.728;9.140;2023-04-06T06:52:18;3.70;99.90
10419;DHT22;5256;48.728;9.140;2023-04-06T06:54:44;3.80;99.90
10419;DHT22;5256;48.728;9.140;2023-04-06T06:57:10;3.90;99.90
10419;DHT22;5256;48.728;9.140;2023-04-06T06:59:35;4.10;99.90
10419;DHT22;5256;48.728;9.140;2023-04-06T07:02:01;4.40;99.90
10419;DHT22;5256;48.728;9.140;2023-04-06T07:04:27;4.80;99.90
10419;DHT22;5256;48.728;9.140;2023-04-06T07:06:52;5.40;99.90
10419;DHT22;5256;48.728;9.140;2023-04-06T07:09:18;6.00;99.90
10419;DHT22;5256;48.728;9.140;2023-04-06T07:11:44;6.30;99.90
10419;DHT22;5256;48.728;9.140;2023-04-06T07:14:10;6.90;99.90
10419;DHT22;5256;48.728;9.140;2023-04-06T07:16:37;7.60;99.30
10419;DHT22;5256;48.728;9.140;2023-04-06T07:19:02;8.10;98.60
10419;DHT22;5256;48.728;9.140;2023-04-06T07:21:28;8.30;98.10
10419;DHT22;5256;48.728;9.140;2023-04-06T07:23:54;8.90;96.90
10419;DHT22;5256;48.728;9.140;2023-04-06T07:26:19;9.00;96.60
10419;DHT22;5256;48.728;9.140;2023-04-06T07:28:45;8.90;95.70
10419;DHT22;5256;48.728;9.140;2023-04-06T07:31:11;9.10;95.80
10419;DHT22;5256;48.728;9.140;2023-04-06T07:33:37;9.40;95.20
10419;DHT22;5256;48.728;9.140;2023-04-06T07:36:03;9.50;95.10
10419;DHT22;5256;48.728;9.140;2023-04-06T07:38:28;9.70;94.90
10419;DHT22;5256;48.728;9.140;2023-04-06T07:40:54;9.90;94.20
10419;DHT22;5256;48.728;9.140;2023-04-06T07:43:19;10.00;93.70
10419;DHT22;5256;48.728;9.140;2023-04-06T07:45:45;10.20;92.90
10419;DHT22;5256;48.728;9.140;2023-04-06T07:48:11;10.50;93.10
10419;DHT22;5256;48.728;9.140;2023-04-06T07:50:37;10.80;92.20
10419;DHT22;5256;48.728;9.140;2023-04-06T07:53:02;10.90;92.30
10419;DHT22;5256;48.728;9.140;2023-04-06T07:55:28;11.00;92.00
10419;DHT22;5256;48.728;9.140;2023-04-06T07:57:53;11.00;91.50
10419;DHT22;5256;48.728;9.140;2023-04-06T08:00:20;11.10;91.70
10419;DHT22;5256;48.728;9.140;2023-04-06T08:02:45;11.40;91.70
10419;DHT22;5256;48.728;9.140;2023-04-06T08:05:11;11.80;92.20
10419;DHT22;5256;48.728;9.140;2023-04-06T08:07:37;12.00;90.30
10419;DHT22;5256;48.728;9.140;2023-04-06T08:10:03;12.00;90.50
10419;DHT22;5256;48.728;9.140;2023-04-06T08:12:28;12.20;90.70
10419;DHT22;5256;48.728;9.140;2023-04-06T08:14:54;12.30;88.90
10419;DHT22;5256;48.728;9.140;2023-04-06T08:17:20;12.60;90.20
10419;DHT22;5256;48.728;9.140;2023-04-06T08:19:45;12.90;88.80
10419;DHT22;5256;48.728;9.140;2023-04-06T08:22:11;13.30;85.90
10419;DHT22;5256;48.728;9.140;2023-04-06T08:24:37;13.50;85.90
10419;DHT22;5256;48.728;9.140;2023-04-06T08:27:03;13.50;85.30
10419;DHT22;5256;48.728;9.140;2023-04-06T08:29:29;13.50;84.00
10419;DHT22;5256;48.728;9.140;2023-04-06T08:31:54;13.80;84.90
10419;DHT22;5256;48.728;9.140;2023-04-06T08:34:21;14.00;82.60
10419;DHT22;5256;48.728;9.140;2023-04-06T08:36:46;14.20;82.70
10419;DHT22;5256;48.728;9.140;2023-04-06T08:39:12;14.70;80.50
10419;DHT22;5256;48.728;9.140;2023-04-06T08:41:38;14.60;78.40
10419;DHT22;5256;48.728;9.140;2023-04-06T08:44:03;14.50;76.70
10419;DHT22;5256;48.728;9.140;2023-04-06T08:46:30;15.00;78.30
10419;DHT22;5256;48.728;9.140;2023-04-06T08:48:57;15.10;73.70
10419;DHT22;5256;48.728;9.140;2023-04-06T08:51:24;15.10;76.80
10419;DHT22;5256;48.728;9.140;2023-04-06T08:53:57;15.20;75.90
10419;DHT22;5256;48.728;9.140;2023-04-06T08:56:24;15.20;75.40
10419;DHT22;5256;48.728;9.140;2023-04-06T08:58:50;15.30;77.20
10419;DHT22;5256;48.728;9.140;2023-04-06T09:01:19;15.40;73.00
10419;DHT22;5256;48.728;9.140;2023-04-06T09:03:46;15.20;74.00
10419;DHT22;5256;48.728;9.140;2023-04-06T09:06:13;15.80;73.00
10419;DHT22;5256;48.728;9.140;2023-04-06T09:08:41;15.90;72.00
10419;DHT22;5256;48.728;9.140;2023-04-06T09:11:07;15.40;70.50
10419;DHT22;5256;48.728;9.140;2023-04-06T09:13:50;15.30;72.60
10419;DHT22;5256;48.728;9.140;2023-04-06T09:16:16;15.20;67.80
10419;DHT22;5256;48.728;9.140;2023-04-06T09:18:42;15.20;66.40
10419;DHT22;5256;48.728;9.140;2023-04-06T09:21:08;15.30;67.50
10419;DHT22;5256;48.728;9.140;2023-04-06T09:23:35;15.20;68.40
10419;DHT22;5256;48.728;9.140;2023-04-06T09:26:09;14.80;73.20
10419;DHT22;5256;48.728;9.140;2023-04-06T09:28:52;14.90;66.60
10419;DHT22;5256;48.728;9.140;2023-04-06T09:31:28;15.10;70.30
10419;DHT22;5256;48.728;9.140;2023-04-06T09:33:55;14.80;68.30
10419;DHT22;5256;48.728;9.140;2023-04-06T09:36:32;15.10;65.30
10419;DHT22;5256;48.728;9.140;2023-04-06T09:38:59;15.10;66.90
10419;DHT22;5256;48.728;9.140;2023-04-06T09:41:27;15.00;70.30
10419;DHT22;5256;48.728;9.140;2023-04-06T09:44:06;15.30;69.60
10419;DHT22;5256;48.728;9.140;2023-04-06T09:46:42;15.20;68.50
10419;DHT22;5256;48.728;9.140;2023-04-06T09:49:09;15.20;67.00
10419;DHT22;5256;48.728;9.140;2023-04-06T09:54:07;14.60;64.70
10419;DHT22;5256;48.728;9.140;2023-04-06T09:56:43;14.30;63.00
10419;DHT22;5256;48.728;9.140;2023-04-06T09:59:14;13.90;63.50
10419;DHT22;5256;48.728;9.140;2023-04-06T10:01:43;13.90;68.20
10419;DHT22;5256;48.728;9.140;2023-04-06T10:06:59;13.00;63.40
10419;DHT22;5256;48.728;9.140;2023-04-06T10:09:28;12.60;66.10
10419;DHT22;5256;48.728;9.140;2023-04-06T10:11:54;12.40;68.80
10419;DHT22;5256;48.728;9.140;2023-04-06T10:14:23;12.20;68.80
10419;DHT22;5256;48.728;9.140;2023-04-06T10:16:49;12.20;71.00
10419;DHT22;5256;48.728;9.140;2023-04-06T10:19:21;12.20;73.70
10419;DHT22;5256;48.728;9.140;2023-04-06T10:21:51;12.20;72.00
10419;DHT22;5256;48.728;9.140;2023-04-06T10:24:20;12.20;67.80
10419;DHT22;5256;48.728;9.140;2023-04-06T10:27:01;11.90;67.40
10419;DHT22;5256;48.728;9.140;2023-04-06T10:29:27;11.60;68.60
10419;DHT22;5256;48.728;9.140;2023-04-06T10:31:52;11.50;69.10
10419;DHT22;5256;48.728;9.140;2023-04-06T10:34:18;11.20;71.10
10419;DHT22;5256;48.728;9.140;2023-04-06T10:36:44;11.20;71.90
10419;DHT22;5256;48.728;9.140;2023-04-06T10:39:09;11.30;71.20
10419;DHT22;5256;48.728;9.140;2023-04-06T10:41:43;11.30;70.90
10419;DHT22;5256;48.728;9.140;2023-04-06T10:44:23;11.10;69.50
10419;DHT22;5256;48.728;9.140;2023-04-06T10:46:54;11.10;73.60
10419;DHT22;5256;48.728;9.140;2023-04-06T10:49:20;11.10;70.50
10419;DHT22;5256;48.728;9.140;2023-04-06T10:51:51;11.20;71.30
10419;DHT22;5256;48.728;9.140;2023-04-06T10:54:17;11.30;73.10
10419;DHT22;5256;48.728;9.140;2023-04-06T10:56:44;11.30;72.70
10419;DHT22;5256;48.728;9.140;2023-04-06T10:59:09;11.60;73.80
10419;DHT22;5256;48.728;9.140;2023-04-06T11:01:36;11.70;73.80
10419;DHT22;5256;48.728;9.140;2023-04-06T11:04:02;11.70;71.90
10419;DHT22;5256;48.728;9.140;2023-04-06T11:06:29;11.70;71.00
10419;DHT22;5256;48.728;9.140;2023-04-06T11:08:57;11.60;72.10
10419;DHT22;5256;48.728;9.140;2023-04-06T11:11:24;11.70;72.90
10419;DHT22;5256;48.728;9.140;2023-04-06T11:13:55;11.60;69.80
10419;DHT22;5256;48.728;9.140;2023-04-06T11:16:23;11.60;68.70
10419;DHT22;5256;48.728;9.140;2023-04-06T11:18:50;11.30;69.90
10419;DHT22;5256;48.728;9.140;2023-04-06T11:21:17;11.40;69.80
10419;DHT22;5256;48.728;9.140;2023-04-06T11:23:43;11.40;68.90
10419;DHT22;5256;48.728;9.140;2023-04-06T11:26:12;11.40;68.10
10419;DHT22;5256;48.728;9.140;2023-04-06T11:28:41;11.00;67.40
10419;DHT22;5256;48.728;9.140;2023-04-06T11:31:07;11.10;67.80
10419;DHT22;5256;48.728;9.140;2023-04-06T11:33:39;11.20;67.50
10419;DHT22;5256;48.728;9.140;2023-04-06T11:36:05;11.20;68.20
10419;DHT22;5256;48.728;9.140;2023-04-06T11:38:31;11.30;67.90
10419;DHT22;5256;48.728;9.140;2023-04-06T11:40:57;11.30;68.60
10419;DHT22;5256;48.728;9.140;2023-04-06T11:43:28;11.40;71.70
10419;DHT22;5256;48.728;9.140;2023-04-06T11:46:00;11.60;70.20
10419;DHT22;5256;48.728;9.140;2023-04-06T11:48:28;11.70;69.00
10419;DHT22;5256;48.728;9.140;2023-04-06T11:50:57;11.70;68.70
10419;DHT22;5256;48.728;9.140;2023-04-06T11:53:24;11.30;67.60
10419;DHT22;5256;48.728;9.140;2023-04-06T11:55:50;11.60;67.90
10419;DHT22;5256;48.728;9.140;2023-04-06T11:58:16;11.80;68.80
10419;DHT22;5256;48.728;9.140;2023-04-06T12:00:43;11.80;68.70
10419;DHT22;5256;48.728;9.140;2023-04-06T12:03:11;12.00;68.20
10419;DHT22;5256;48.728;9.140;2023-04-06T12:05:37;12.00;68.80
10419;DHT22;5256;48.728;9.140;2023-04-06T12:08:03;12.10;67.60
10419;DHT22;5256;48.728;9.140;2023-04-06T12:10:29;12.00;68.30
10419;DHT22;5256;48.728;9.140;2023-04-06T12:12:55;11.90;67.20
10419;DHT22;5256;48.728;9.140;2023-04-06T12:15:20;12.00;66.10
10419;DHT22;5256;48.728;9.140;2023-04-06T12:17:47;12.10;67.80
10419;DHT22;5256;48.728;9.140;2023-04-06T12:20:12;12.20;67.00
10419;DHT22;5256;48.728;9.140;2023-04-06T12:22:39;12.10;67.80
10419;DHT22;5256;48.728;9.140;2023-04-06T12:25:05;12.20;68.10
10419;DHT22;5256;48.728;9.140;2023-04-06T12:27:32;12.10;66.40
10419;DHT22;5256;48.728;9.140;2023-04-06T12:29:58;12.00;65.90
10419;DHT22;5256;48.728;9.140;2023-04-06T12:32:23;12.10;66.40
10419;DHT22;5256;48.728;9.140;2023-04-06T12:34:52;12.10;65.80
10419;DHT22;5256;48.728;9.140;2023-04-06T12:37:17;12.00;64.40
10419;DHT22;5256;48.728;9.140;2023-04-06T12:39:43;12.00;65.00
10419;DHT22;5256;48.728;9.140;2023-04-06T12:42:10;12.10;64.50
10419;DHT22;5256;48.728;9.140;2023-04-06T12:44:36;12.10;64.80
10419;DHT22;5256;48.728;9.140;2023-04-06T12:47:02;12.00;64.90
10419;DHT22;5256;48.728;9.140;2023-04-06T12:49:29;12.00;65.10
10419;DHT22;5256;48.728;9.140;2023-04-06T12:51:55;11.90;64.80
10419;DHT22;5256;48.728;9.140;2023-04-06T12:54:20;12.00;65.70
10419;DHT22;5256;48.728;9.140;2023-04-06T12:56:46;12.10;67.00
10419;DHT22;5256;48.728;9.140;2023-04-06T12:59:12;12.00;64.50
10419;DHT22;5256;48.728;9.140;2023-04-06T13:01:37;12.10;63.70
10419;DHT22;5256;48.728;9.140;2023-04-06T13:04:03;12.30;63.10
10419;DHT22;5256;48.728;9.140;2023-04-06T13:06:29;12.20;63.10
10419;DHT22;5256;48.728;9.140;2023-04-06T13:08:55;12.00;62.00
10419;DHT22;5256;48.728;9.140;2023-04-06T13:11:21;11.70;63.80
10419;DHT22;5256;48.728;9.140;2023-04-06T13:13:49;12.00;63.60
10419;DHT22;5256;48.728;9.140;2023-04-06T13:16:15;12.10;62.50
10419;DHT22;5256;48.728;9.140;2023-04-06T13:18:41;12.00;61.50
10419;DHT22;5256;48.728;9.140;2023-04-06T13:21:07;12.20;61.90
10419;DHT22;5256;48.728;9.140;2023-04-06T13:23:33;12.20;62.00
10419;DHT22;5256;48.728;9.140;2023-04-06T13:26:06;12.70;61.90
10419;DHT22;5256;48.728;9.140;2023-04-06T13:28:33;13.00;62.90
10419;DHT22;5256;48.728;9.140;2023-04-06T13:31:00;13.10;61.90
10419;DHT22;5256;48.728;9.140;2023-04-06T13:33:27;13.20;61.00
10419;DHT22;5256;48.728;9.140;2023-04-06T13:35:53;13.30;64.00
10419;DHT22;5256;48.728;9.140;2023-04-06T13:38:18;13.50;61.80
10419;DHT22;5256;48.728;9.140;2023-04-06T13:40:44;13.70;61.30
10419;DHT22;5256;48.728;9.140;2023-04-06T13:43:10;13.70;60.20
10419;DHT22;5256;48.728;9.140;2023-04-06T13:45:37;13.50;60.00
10419;DHT22;5256;48.728;9.140;2023-04-06T13:48:02;13.00;60.00
10419;DHT22;5256;48.728;9.140;2023-04-06T13:50:28;13.10;61.80
10419;DHT22;5256;48.728;9.140;2023-04-06T13:52:54;13.40;62.20
10419;DHT22;5256;48.728;9.140;2023-04-06T13:55:20;13.40;59.60
10419;DHT22;5256;48.728;9.140;2023-04-06T13:57:46;13.60;60.30
10419;DHT22;5256;48.728;9.140;2023-04-06T14:00:12;13.80;59.40
10419;DHT22;5256;48.728;9.140;2023-04-06T14:02:39;13.80;60.30
10419;DHT22;5256;48.728;9.140;2023-04-06T14:05:05;13.90;58.50
10419;DHT22;5256;48.728;9.140;2023-04-06T14:07:31;13.80;58.50
10419;DHT22;5256;48.728;9.140;2023-04-06T14:09:57;13.90;59.30
10419;DHT22;5256;48.728;9.140;2023-04-06T14:12:22;13.90;59.40
10419;DHT22;5256;48.728;9.140;2023-04-06T14:14:48;14.00;58.80
10419;DHT22;5256;48.728;9.140;2023-04-06T14:17:13;14.10;58.80
10419;DHT22;5256;48.728;9.140;2023-04-06T14:19:39;14.10;59.30
10419;DHT22;5256;48.728;9.140;2023-04-06T14:22:05;13.70;59.20
10419;DHT22;5256;48.728;9.140;2023-04-06T14:24:30;13.60;59.00
10419;DHT22;5256;48.728;9.140;2023-04-06T14:26:57;13.90;60.90
10419;DHT22;5256;48.728;9.140;2023-04-06T14:29:23;14.30;59.60
10419;DHT22;5256;48.728;9.140;2023-04-06T14:31:49;14.70;58.40
10419;DHT22;5256;48.728;9.140;2023-04-06T14:34:14;14.70;59.30
10419;DHT22;5256;48.728;9.140;2023-04-06T14:36:42;14.90;59.00
10419;DHT22;5256;48.728;9.140;2023-04-06T14:39:07;15.20;59.70
10419;DHT22;5256;48.728;9.140;2023-04-06T14:41:33;14.70;56.80
10419;DHT22;5256;48.728;9.140;2023-04-06T14:44:00;14.30;58.00
10419;DHT22;5256;48.728;9.140;2023-04-06T14:46:26;14.50;59.00
10419;DHT22;5256;48.728;9.140;2023-04-06T14:48:54;14.80;57.20
10419;DHT22;5256;48.728;9.140;2023-04-06T14:51:20;14.90;56.80
10419;DHT22;5256;48.728;9.140;2023-04-06T14:53:46;15.00;57.60
10419;DHT22;5256;48.728;9.140;2023-04-06T14:56:12;15.30;57.90
10419;DHT22;5256;48.728;9.140;2023-04-06T14:58:37;15.50;56.60
10419;DHT22;5256;48.728;9.140;2023-04-06T15:01:03;15.30;58.40
10419;DHT22;5256;48.728;9.140;2023-04-06T15:03:29;15.60;58.90
10419;DHT22;5256;48.728;9.140;2023-04-06T15:05:56;15.90;57.80
10419;DHT22;5256;48.728;9.140;2023-04-06T15:08:23;15.80;56.80
10419;DHT22;5256;48.728;9.140;2023-04-06T15:10:49;16.00;57.20
10419;DHT22;5256;48.728;9.140;2023-04-06T15:13:16;15.60;57.20
10419;DHT22;5256;48.728;9.140;2023-04-06T15:15:42;15.00;56.70
10419;DHT22;5256;48.728;9.140;2023-04-06T15:18:08;14.80;59.20
10419;DHT22;5256;48.728;9.140;2023-04-06T15:20:34;14.60;59.20
10419;DHT22;5256;48.728;9.140;2023-04-06T15:23:01;14.20;61.50
10419;DHT22;5256;48.728;9.140;2023-04-06T15:25:27;14.30;62.30
10419;DHT22;5256;48.728;9.140;2023-04-06T15:27:54;14.20;62.40
10419;DHT22;5256;48.728;9.140;2023-04-06T15:30:19;14.10;61.60
10419;DHT22;5256;48.728;9.140;2023-04-06T15:32:58;13.80;63.10
10419;DHT22;5256;48.728;9.140;2023-04-06T15:35:29;13.70;62.60
10419;DHT22;5256;48.728;9.140;2023-04-06T15:37:55;13.70;63.70
10419;DHT22;5256;48.728;9.140;2023-04-06T15:40:21;13.60;62.30
10419;DHT22;5256;48.728;9.140;2023-04-06T15:42:47;13.50;63.60
10419;DHT22;5256;48.728;9.140;2023-04-06T15:45:13;13.40;63.00
10419;DHT22;5256;48.728;9.140;2023-04-06T15:47:40;13.30;63.80